• Join FlightAware (Why Join?)
  • Login
  • US Flag 
09:15PM EDT


 

Airport Tracker/Info


-or-


 

Live Flight TrackerFlight Track Log ✈ JBU33 ✈ 24-Apr-2013 ✈ KBTV - KJFK

Flight Track Log - Related Links

Times and Time Zones

All times are in EDT time to prevent confusion due to time zone crossing. See the JBU33 flight status page for this flight to view local times or setup timezone preferences in your user account.

Time Position Orientation Groundspeed Altitude Reporting Facility
EDT Latitude Longitude Course Direction KTS MPH feet Rate Location/Type
01:13PM 44.1567 -73.2663 195° South  Level FlightAware Approximate
01:13PM 44.2589 -73.1908 196° South 281 323 9,600  Level Boston Center
01:14PM 44.0787 -73.2955 195° South  Level FlightAware Approximate
01:14PM 44.1836 -73.2217 196° South 287 330 11,300  Level Boston Center
01:15PM 44.0003 -73.3222 194° South  Level FlightAware Approximate
01:15PM 44.0939 -73.2611 198° South 314 361 14,000  Level Boston Center
01:16PM 43.9217 -73.3483 193° South  Level FlightAware Approximate
01:16PM 43.9997 -73.2972 195° South 337 388 16,400  Level Boston Center
01:17PM 43.8441 -73.3792 196° South  Level FlightAware Approximate
01:17PM 43.9161 -73.3336 197° South 344 396 19,100  Level Boston Center
01:18PM 43.7666 -73.4102 196° South  Level FlightAware Approximate
01:18PM 43.8219 -73.3725 197° South 349 402 21,100  Level Boston Center
01:19PM 43.7197 -73.4139 196° South 372 428 22,900 1,440 Climbing Boston Center
01:20PM 43.6067 -73.4581 196° South 384 442 24,000 540 Climbing Boston Center
01:21PM 43.5022 -73.5019 197° South 391 450 24,000  Level Boston Center
01:22PM 43.3933 -73.5458 196° South 405 466 24,000  Level Boston Center
01:23PM 43.2844 -73.5867 195° South 405 466 24,000  Level Boston Center
01:24PM 43.1800 -73.6303 197° South 405 466 24,000  Level Boston Center
01:25PM 43.0836 -73.6711 197° South 405 466 24,000  Level Boston Center
01:26PM 42.9811 -73.7144 197° South 400 460 24,000  Level Boston Center
01:27PM 42.8742 -73.7547 195° South 400 460 24,000  Level Boston Center
01:28PM 42.7675 -73.7975 196° South 405 466 24,000  Level Boston Center
01:29PM 42.6547 -73.8092 184° South 399 459 24,000  Level Boston Center
01:30PM 42.5339 -73.8122 181° South 399 459 24,000  Level Boston Center
01:31PM 42.4211 -73.8153 181° South 404 465 24,000  Level Boston Center
01:32PM 42.3086 -73.8158 180° South 404 465 24,000  Level Boston Center
01:33PM 42.1961 -73.8161 180° South 404 465 24,000  Level Boston Center
01:34PM 42.0853 -73.8444 191° South 404 465 24,000  Level Boston Center
01:35PM 41.9764 -73.8811 194° South 404 465 24,000  Level Boston Center
01:36PM 41.8697 -73.9150 193° South 404 465 24,000 -180 Level Boston Center
01:38PM 41.7014 -73.9661 193° South 413 475 23,600 -600 Descending New York Center
01:39PM 41.6069 -73.9922 192° South 378 435 22,500 -1,080 Descending New York Center
01:40PM 41.5272 -74.0214 195° South 341 392 21,500 -1,020 Descending New York Center
01:41PM 41.4411 -74.0450 192° South 336 387 20,500 -780 Descending New York Center
01:42PM 41.3564 -74.0906 202° Southwest 336 387 20,000 -300 Descending New York Center
01:43PM 41.2819 -74.1531 212° Southwest 323 372 20,000  Level New York Center
01:44PM 41.2253 -74.2414 230° Southwest 317 365 20,000  Level New York Center
01:45PM 41.1767 -74.3325 235° Southwest 312 359 20,000  Level New York Center
01:46PM 41.1278 -74.4264 235° Southwest 312 359 20,000  Level New York Center
01:47PM 41.0750 -74.5172 232° Southwest 312 359 20,000  Level New York Center
01:48PM 41.0047 -74.5708 210° Southwest 298 343 20,000 -60 Level New York Center
01:49PM 40.9517 -74.4664 124° Southeast 221 254 19,900 -420 Descending New York Center
01:50PM 40.9350 -74.3308 99° East 255 293 19,200 -540 Descending New York Center
01:51PM 40.9167 -74.2000 100° East 369 425 19,000 -600 Descending New York TRACON
01:52PM 40.8833 -74.0833 111° Southeast 355 409 18,100 -1,440 Descending New York TRACON
01:53PM 40.8333 -73.9667 119° Southeast 357 411 16,200 -1,920 Descending New York TRACON
01:54PM 40.8000 -73.8333 108° East 358 412 14,300 -1,740 Descending New York TRACON
01:55PM 40.7667 -73.7333 114° Southeast 362 417 13,000 -720 Descending New York TRACON
01:56PM 40.7167 -73.6167 119° Southeast 363 418 13,000 -120 Level New York TRACON
01:57PM 40.6500 -73.5333 137° Southeast 343 395 12,800 -960 Descending New York TRACON
01:58PM 40.5667 -73.5167 171° South 307 353 11,100 -1,800 Descending New York TRACON
01:59PM 40.5000 -73.5500 201° Southwest 279 321 9,200 -1,800 Descending New York TRACON
02:00PM 40.4333 -73.6000 210° Southwest 262 302 7,500 -1,920 Descending New York TRACON
02:01PM 40.4000 -73.6833 242° Southwest 251 289 5,400 -1,800 Descending New York TRACON
02:02PM 40.3667 -73.7667 242° Southwest 249 287 4,000 -720 Descending New York TRACON
02:03PM 40.3500 -73.8500 255° West 252 290 4,000 -420 Level New York TRACON
02:04PM 40.3667 -73.9167 288° West 234 269 3,200 -540 Descending New York TRACON
02:05PM 40.4000 -73.9667 311° West 224 258 3,000 -120 Descending New York TRACON
02:06PM 40.4667 -73.9667 360° North 226 260 3,000  Level New York TRACON
02:07PM 40.5333 -73.9667 360° North 197 227 3,000 -540 Level New York TRACON
02:08PM 40.5833 -73.9167 37° Northeast 207 238 1,900 -840 Descending New York TRACON
02:09PM 40.6167 -73.8833 37° Northeast 169 194 1,400 -420 Descending New York TRACON
02:10PM 40.6500 -73.8667 21° North 147 169 1,100 -480 Descending New York TRACON
02:11PM 40.6667 -73.8167 66° East 140 161 500 -600 Descending New York TRACON